createdAt,value
2022-09-17T00:01:08.187Z,10.80
2022-09-17T00:03:35.704Z,10.80
2022-09-17T00:06:06.272Z,10.80
2022-09-17T00:08:34.630Z,10.70
2022-09-17T00:11:17.162Z,10.70
2022-09-17T00:13:45.005Z,10.70
2022-09-17T00:16:12.624Z,10.70
2022-09-17T00:18:41.867Z,10.60
2022-09-17T00:21:19.760Z,10.60
2022-09-17T00:23:47.407Z,10.60
2022-09-17T00:26:14.629Z,10.50
2022-09-17T00:28:45.288Z,10.50
2022-09-17T00:31:12.226Z,10.50
2022-09-17T00:33:39.159Z,10.50
2022-09-17T00:36:06.275Z,10.40
2022-09-17T00:38:33.732Z,10.30
2022-09-17T00:41:01.560Z,10.40
2022-09-17T00:43:49.497Z,10.30
2022-09-17T00:46:37.801Z,10.20
2022-09-17T00:49:14.944Z,10.20
2022-09-17T00:52:18.142Z,10.20
2022-09-17T00:54:49.842Z,10.10
2022-09-17T00:57:17.434Z,10.10
2022-09-17T00:59:44.590Z,10.10
2022-09-17T01:02:12.167Z,10.00
2022-09-17T01:04:38.960Z,10.00
2022-09-17T01:07:20.363Z,10.10
2022-09-17T01:09:55.926Z,10.00
2022-09-17T01:12:31.796Z,9.90
2022-09-17T01:15:40.762Z,9.90
2022-09-17T01:18:22.716Z,9.90
2022-09-17T01:21:19.083Z,9.90
2022-09-17T01:24:13.083Z,9.80
2022-09-17T01:26:57.930Z,9.80
2022-09-17T01:29:43.012Z,9.80
2022-09-17T01:32:20.634Z,9.80
2022-09-17T01:35:08.846Z,9.80
2022-09-17T01:37:59.160Z,9.80
2022-09-17T01:40:33.284Z,9.80
2022-09-17T01:43:08.473Z,9.80
2022-09-17T01:45:57.003Z,9.80
2022-09-17T01:48:29.454Z,9.70
2022-09-17T01:51:06.406Z,9.80
2022-09-17T01:53:57.879Z,9.80
2022-09-17T01:56:29.508Z,9.70
2022-09-17T01:59:14.282Z,9.80
2022-09-17T02:01:43.822Z,9.80
2022-09-17T02:04:41.250Z,9.80
2022-09-17T02:07:14.209Z,9.70
2022-09-17T02:09:50.991Z,9.80
2022-09-17T02:12:24.269Z,9.70
2022-09-17T02:14:54.107Z,9.80
2022-09-17T02:17:39.100Z,9.80
2022-09-17T02:20:07.414Z,9.70
2022-09-17T02:22:46.738Z,9.70
2022-09-17T02:25:38.507Z,9.70
2022-09-17T02:28:19.800Z,9.70
2022-09-17T02:30:46.631Z,9.70
2022-09-17T02:33:15.929Z,9.60
2022-09-17T02:35:44.252Z,9.70
2022-09-17T02:38:11.132Z,9.60
2022-09-17T02:41:06.465Z,9.70
2022-09-17T02:43:50.051Z,9.60
2022-09-17T02:46:46.377Z,9.50
2022-09-17T02:49:51.556Z,9.50
2022-09-17T02:52:28.194Z,9.50
2022-09-17T02:55:38.309Z,9.50
2022-09-17T02:58:17.265Z,9.60
2022-09-17T03:00:45.905Z,9.50
2022-09-17T03:03:21.499Z,9.40
2022-09-17T03:05:49.630Z,9.40
2022-09-17T03:08:18.925Z,9.50
2022-09-17T03:10:46.184Z,9.50
2022-09-17T03:13:13.019Z,9.50
2022-09-17T03:15:39.969Z,9.40
2022-09-17T03:18:07.244Z,9.40
2022-09-17T03:20:34.004Z,9.50
2022-09-17T03:23:00.948Z,9.40
2022-09-17T03:25:27.944Z,9.50
2022-09-17T03:27:54.875Z,9.50
2022-09-17T03:30:21.988Z,9.50
2022-09-17T03:32:48.826Z,9.50
2022-09-17T03:35:15.676Z,9.50
2022-09-17T03:37:43.130Z,9.50
2022-09-17T03:40:10.567Z,9.50
2022-09-17T03:42:37.563Z,9.50
2022-09-17T03:45:05.167Z,9.50
2022-09-17T03:47:32.173Z,9.40
2022-09-17T03:49:59.129Z,9.50
2022-09-17T03:52:25.931Z,9.50
2022-09-17T03:54:52.872Z,9.50
2022-09-17T03:57:19.833Z,9.50
2022-09-17T03:59:46.654Z,9.50
2022-09-17T04:02:13.532Z,9.50
2022-09-17T04:04:40.611Z,9.40
2022-09-17T04:07:07.577Z,9.50
2022-09-17T04:09:35.378Z,9.50
2022-09-17T04:12:02.792Z,9.40
2022-09-17T04:14:29.798Z,9.40
2022-09-17T04:16:58.539Z,9.40
2022-09-17T04:19:25.376Z,9.40
2022-09-17T04:21:53.032Z,9.40
2022-09-17T04:24:19.926Z,9.50
2022-09-17T04:26:46.979Z,9.70
2022-09-17T04:29:13.744Z,9.60
2022-09-17T04:31:40.811Z,9.50
2022-09-17T04:34:07.730Z,9.50
2022-09-17T04:36:34.629Z,9.60
2022-09-17T04:39:01.468Z,9.50
2022-09-17T04:41:28.247Z,9.50
2022-09-17T04:43:55.108Z,9.50
2022-09-17T04:46:22.231Z,9.50
2022-09-17T04:48:49.113Z,9.50
2022-09-17T04:51:15.892Z,9.40
2022-09-17T04:53:42.728Z,9.40
2022-09-17T04:56:09.501Z,9.40
2022-09-17T04:58:36.350Z,9.30
2022-09-17T05:01:03.414Z,9.40
2022-09-17T05:03:30.505Z,9.30
2022-09-17T05:05:57.446Z,9.30
2022-09-17T05:08:25.330Z,9.30
2022-09-17T05:10:52.467Z,9.30
2022-09-17T05:13:19.481Z,9.30
2022-09-17T05:15:46.504Z,9.30
2022-09-17T05:18:13.647Z,9.40
2022-09-17T05:20:40.645Z,9.30
2022-09-17T05:23:07.610Z,9.20
2022-09-17T05:25:34.777Z,9.20
2022-09-17T05:28:01.889Z,9.30
2022-09-17T05:30:28.685Z,9.20
2022-09-17T05:33:03.450Z,9.20
2022-09-17T05:35:33.046Z,9.20
2022-09-17T05:38:05.539Z,9.20
2022-09-17T05:40:35.731Z,9.20
2022-09-17T05:43:05.037Z,9.20
2022-09-17T05:45:34.447Z,9.20
2022-09-17T05:48:03.074Z,9.20
2022-09-17T05:50:30.805Z,9.20
2022-09-17T05:52:57.784Z,9.20
2022-09-17T05:55:24.949Z,9.40
2022-09-17T05:57:51.997Z,9.20
2022-09-17T06:00:19.145Z,9.20
2022-09-17T06:02:46.115Z,9.20
2022-09-17T06:05:13.205Z,9.20
2022-09-17T06:07:40.497Z,9.30
2022-09-17T06:10:08.526Z,9.40
2022-09-17T06:12:35.735Z,9.40
2022-09-17T06:15:04.025Z,9.40
2022-09-17T06:17:35.542Z,9.50
2022-09-17T06:20:04.574Z,9.60
2022-09-17T06:22:31.450Z,9.60
2022-09-17T06:24:59.834Z,9.70
2022-09-17T06:27:34.567Z,9.80
2022-09-17T06:30:02.121Z,9.90
2022-09-17T06:32:29.545Z,10.00
2022-09-17T06:34:57.354Z,10.00
2022-09-17T06:37:31.766Z,10.00
2022-09-17T06:39:59.441Z,10.00
2022-09-17T06:42:26.896Z,9.90
2022-09-17T06:44:53.683Z,9.90
2022-09-17T06:47:20.895Z,9.80
2022-09-17T06:49:47.710Z,9.70
2022-09-17T06:52:14.738Z,9.80
2022-09-17T06:54:41.559Z,9.80
2022-09-17T06:57:08.409Z,9.70
2022-09-17T06:59:35.185Z,9.70
2022-09-17T07:02:02.044Z,9.80
2022-09-17T07:04:28.961Z,9.90
2022-09-17T07:06:55.909Z,9.80
2022-09-17T07:09:23.190Z,10.00
2022-09-17T07:11:50.175Z,9.90
2022-09-17T07:14:17.068Z,9.90
2022-09-17T07:16:43.889Z,9.80
2022-09-17T07:19:14.665Z,9.80
2022-09-17T07:21:42.157Z,9.80
2022-09-17T07:24:09.129Z,9.90
2022-09-17T07:26:35.934Z,9.90
2022-09-17T07:29:03.036Z,9.90
2022-09-17T07:31:29.884Z,10.00
2022-09-17T07:33:57.076Z,10.20
2022-09-17T07:36:23.917Z,10.20
2022-09-17T07:38:50.773Z,10.30
2022-09-17T07:41:18.081Z,10.30
2022-09-17T07:43:45.720Z,10.40
2022-09-17T07:46:16.359Z,10.50
2022-09-17T07:48:43.446Z,10.40
2022-09-17T07:51:19.521Z,10.50
2022-09-17T07:53:47.702Z,10.50
2022-09-17T07:56:14.599Z,10.50
2022-09-17T07:58:42.281Z,10.60
2022-09-17T08:01:16.042Z,10.70
2022-09-17T08:03:49.770Z,10.80
2022-09-17T08:06:20.051Z,10.90
2022-09-17T08:08:47.130Z,10.90
2022-09-17T08:11:32.384Z,11.00
2022-09-17T08:14:04.312Z,10.80
2022-09-17T08:16:31.589Z,10.80
2022-09-17T08:18:58.602Z,10.90
2022-09-17T08:21:25.451Z,11.00
2022-09-17T08:23:52.528Z,10.90
2022-09-17T08:26:22.830Z,11.10
2022-09-17T08:28:57.117Z,11.10
2022-09-17T08:31:26.859Z,11.20
2022-09-17T08:33:53.886Z,11.20
2022-09-17T08:36:22.670Z,11.30
2022-09-17T08:38:53.253Z,11.50
2022-09-17T08:41:33.159Z,11.60
2022-09-17T08:44:08.981Z,11.60
2022-09-17T08:46:55.916Z,11.60
2022-09-17T08:49:31.855Z,11.70
2022-09-17T08:52:23.973Z,11.90
2022-09-17T08:54:59.204Z,12.00
2022-09-17T08:57:51.049Z,11.90
2022-09-17T09:00:20.414Z,11.80
2022-09-17T09:03:17.351Z,11.70
2022-09-17T09:05:50.100Z,11.50
2022-09-17T09:08:31.894Z,11.40
2022-09-17T09:11:02.058Z,11.40
2022-09-17T09:13:38.769Z,11.40
2022-09-17T09:16:14.647Z,11.30
2022-09-17T09:18:44.884Z,11.30
2022-09-17T09:21:26.651Z,11.40
2022-09-17T09:24:02.424Z,11.50
2022-09-17T09:26:39.808Z,11.80
2022-09-17T09:29:15.526Z,11.60
2022-09-17T09:31:58.706Z,11.60
2022-09-17T09:34:28.304Z,11.70
2022-09-17T09:37:06.077Z,11.90
2022-09-17T09:39:41.312Z,12.10
2022-09-17T09:42:22.971Z,12.20
2022-09-17T09:44:50.184Z,12.30
2022-09-17T09:47:55.970Z,12.40
2022-09-17T09:51:01.754Z,12.30
2022-09-17T09:53:35.878Z,12.30
2022-09-17T09:56:36.139Z,12.30
2022-09-17T09:59:07.573Z,12.40
2022-09-17T10:01:39.319Z,12.50
2022-09-17T10:04:18.821Z,12.50
2022-09-17T10:06:47.336Z,12.60
2022-09-17T10:09:17.770Z,12.50
2022-09-17T10:12:15.559Z,12.40
2022-09-17T10:14:46.531Z,12.30
2022-09-17T10:17:23.840Z,12.20
2022-09-17T10:20:00.159Z,12.20
2022-09-17T10:22:33.580Z,12.30
2022-09-17T10:25:02.347Z,12.30
2022-09-17T10:27:30.568Z,12.20
2022-09-17T10:30:08.136Z,12.10
2022-09-17T10:32:35.468Z,12.00
2022-09-17T10:35:07.327Z,11.90
2022-09-17T10:37:34.049Z,11.90
2022-09-17T10:40:01.068Z,11.90
2022-09-17T10:42:27.891Z,12.00
2022-09-17T10:44:56.570Z,12.10
2022-09-17T10:47:25.660Z,12.30
2022-09-17T10:50:24.996Z,12.50
2022-09-17T10:52:57.518Z,12.70
2022-09-17T10:55:36.224Z,12.90
2022-09-17T10:58:20.162Z,13.00
2022-09-17T11:01:08.498Z,13.20
2022-09-17T11:04:04.354Z,13.30
2022-09-17T11:06:54.550Z,13.40
2022-09-17T11:09:39.145Z,13.60
2022-09-17T11:12:36.697Z,13.70
2022-09-17T11:15:34.064Z,13.90
2022-09-17T11:18:28.572Z,14.00
2022-09-17T11:21:14.459Z,13.90
2022-09-17T11:24:09.725Z,13.50
2022-09-17T11:26:41.944Z,13.20
2022-09-17T11:29:31.663Z,13.00
2022-09-17T11:32:15.981Z,12.90
2022-09-17T11:34:51.063Z,12.70
2022-09-17T11:37:31.629Z,12.70
2022-09-17T11:40:11.766Z,12.70
2022-09-17T11:42:55.726Z,12.60
2022-09-17T11:45:37.958Z,12.50
2022-09-17T11:48:16.575Z,12.30
2022-09-17T11:50:57.247Z,12.20
2022-09-17T11:53:35.905Z,12.00
2022-09-17T11:56:29.675Z,12.20
2022-09-17T11:59:17.650Z,12.40
2022-09-17T12:01:47.606Z,12.90
2022-09-17T12:04:31.435Z,13.20
2022-09-17T12:07:14.119Z,13.30
2022-09-17T12:09:45.768Z,13.20
2022-09-17T12:12:44.835Z,13.10
2022-09-17T12:15:18.568Z,13.10
2022-09-17T12:18:03.818Z,13.10
2022-09-17T12:20:40.180Z,13.20
2022-09-17T12:23:13.807Z,13.60
2022-09-17T12:25:59.384Z,14.20
2022-09-17T12:28:40.292Z,15.10
2022-09-17T12:31:21.394Z,16.00
2022-09-17T12:33:58.469Z,16.70
2022-09-17T12:36:48.824Z,17.20
2022-09-17T12:39:34.267Z,17.60
2022-09-17T12:42:19.293Z,18.10
2022-09-17T12:44:52.174Z,18.10
2022-09-17T12:47:46.672Z,18.10
2022-09-17T12:50:40.048Z,18.40
2022-09-17T12:53:21.691Z,19.10
2022-09-17T12:56:17.368Z,19.50
2022-09-17T12:59:06.096Z,19.90
2022-09-17T13:01:56.524Z,20.20
2022-09-17T13:05:02.142Z,20.70
2022-09-17T13:08:06.562Z,20.90
2022-09-17T13:10:42.135Z,21.40
2022-09-17T13:13:50.021Z,21.70
2022-09-17T13:16:37.682Z,21.90
2022-09-17T13:19:23.355Z,21.90
2022-09-17T13:22:00.342Z,21.50
2022-09-17T13:24:31.176Z,21.20
2022-09-17T13:27:01.269Z,21.50
2022-09-17T13:29:46.558Z,21.60
2022-09-17T13:32:32.134Z,21.80
2022-09-17T13:35:18.859Z,21.10
2022-09-17T13:38:01.672Z,20.20
2022-09-17T13:40:30.469Z,19.50
2022-09-17T13:43:04.350Z,19.30
2022-09-17T13:45:33.698Z,19.60
2022-09-17T13:48:11.438Z,19.10
2022-09-17T13:50:43.726Z,17.90
2022-09-17T13:53:16.666Z,17.50
2022-09-17T13:55:44.877Z,18.20
2022-09-17T13:58:20.868Z,18.90
2022-09-17T14:01:11.877Z,19.10
2022-09-17T14:03:44.302Z,18.20
2022-09-17T14:06:11.298Z,17.70
2022-09-17T14:08:44.357Z,18.30
2022-09-17T14:11:27.645Z,19.20
2022-09-17T14:14:18.383Z,20.00
2022-09-17T14:16:46.826Z,20.50
2022-09-17T14:19:17.158Z,21.00
2022-09-17T14:22:02.081Z,21.10
2022-09-17T14:24:39.790Z,21.20
2022-09-17T14:27:40.174Z,21.10
2022-09-17T14:30:23.373Z,20.40
2022-09-17T14:33:08.501Z,19.50
2022-09-17T14:35:37.208Z,18.80
2022-09-17T14:38:21.166Z,18.10
2022-09-17T14:40:53.576Z,17.50
2022-09-17T14:43:31.975Z,16.90
2022-09-17T14:45:59.085Z,16.60
2022-09-17T14:48:34.280Z,16.20
2022-09-17T14:51:22.174Z,16.20
2022-09-17T14:54:12.135Z,16.10
2022-09-17T14:56:52.765Z,16.00
2022-09-17T14:59:22.252Z,15.80
2022-09-17T15:01:49.544Z,15.50
2022-09-17T15:04:16.308Z,15.30
2022-09-17T15:06:44.362Z,15.10
2022-09-17T15:09:29.596Z,15.00
2022-09-17T15:11:59.950Z,14.90
2022-09-17T15:14:32.306Z,14.70
2022-09-17T15:17:02.029Z,14.60
2022-09-17T15:19:36.534Z,14.40
2022-09-17T15:22:09.661Z,14.30
2022-09-17T15:24:50.314Z,14.30
2022-09-17T15:27:37.278Z,14.30
2022-09-17T15:30:20.440Z,14.30
2022-09-17T15:32:53.173Z,14.20
2022-09-17T15:35:30.524Z,14.10
2022-09-17T15:38:23.248Z,14.10
2022-09-17T15:40:51.704Z,14.00
2022-09-17T15:43:33.675Z,14.00
2022-09-17T15:46:32.243Z,14.00
2022-09-17T15:49:01.415Z,13.90
2022-09-17T15:51:31.711Z,13.80
2022-09-17T15:54:00.773Z,13.80
2022-09-17T15:56:41.176Z,13.80
2022-09-17T15:59:24.885Z,13.90
2022-09-17T16:01:55.736Z,13.90
2022-09-17T16:04:33.880Z,13.80
2022-09-17T16:07:28.063Z,13.70
2022-09-17T16:09:55.187Z,13.70
2022-09-17T16:12:24.455Z,13.70
2022-09-17T16:14:56.552Z,13.70
2022-09-17T16:17:25.570Z,13.70
2022-09-17T16:19:53.045Z,13.80
2022-09-17T16:22:19.892Z,13.80
2022-09-17T16:24:46.684Z,13.90
2022-09-17T16:27:21.950Z,13.80
2022-09-17T16:29:50.543Z,13.60
2022-09-17T16:32:17.369Z,13.50
2022-09-17T16:34:44.134Z,13.50
2022-09-17T16:37:11.480Z,13.40
2022-09-17T16:39:38.296Z,13.30
2022-09-17T16:42:05.155Z,13.30
2022-09-17T16:44:31.996Z,13.20
2022-09-17T16:46:58.869Z,13.20
2022-09-17T16:49:25.734Z,13.10
2022-09-17T16:51:52.715Z,13.00
2022-09-17T16:54:19.680Z,13.00
2022-09-17T16:56:46.758Z,12.90
2022-09-17T16:59:13.584Z,12.90
2022-09-17T17:01:40.508Z,12.80
2022-09-17T17:04:07.629Z,12.70
2022-09-17T17:06:34.542Z,12.60
2022-09-17T17:09:01.946Z,12.60
2022-09-17T17:11:28.768Z,12.60
2022-09-17T17:13:59.071Z,12.50
2022-09-17T17:16:25.991Z,12.50
2022-09-17T17:18:53.376Z,12.50
2022-09-17T17:21:21.377Z,12.50
2022-09-17T17:23:48.585Z,12.50
2022-09-17T17:26:16.558Z,12.40
2022-09-17T17:28:43.527Z,12.40
2022-09-17T17:31:11.502Z,12.40
2022-09-17T17:33:38.412Z,12.30
2022-09-17T17:36:08.184Z,12.30
2022-09-17T17:38:35.873Z,12.30
2022-09-17T17:41:04.324Z,12.30
2022-09-17T17:43:31.229Z,12.30
2022-09-17T17:45:58.280Z,12.30
2022-09-17T17:48:25.651Z,12.20
2022-09-17T17:50:56.567Z,12.30
2022-09-17T17:53:25.169Z,12.20
2022-09-17T17:55:57.614Z,12.20
2022-09-17T17:58:24.682Z,12.20
2022-09-17T18:00:51.649Z,12.20
2022-09-17T18:03:18.615Z,12.10
2022-09-17T18:05:45.642Z,12.10
2022-09-17T18:08:12.444Z,12.00
2022-09-17T18:10:39.271Z,12.00
2022-09-17T18:13:06.085Z,12.00
2022-09-17T18:15:32.972Z,12.00
2022-09-17T18:17:59.998Z,12.00
2022-09-17T18:20:26.837Z,12.00
2022-09-17T18:22:54.025Z,12.00
2022-09-17T18:25:20.806Z,11.90
2022-09-17T18:27:47.625Z,11.90
2022-09-17T18:30:14.589Z,12.10
2022-09-17T18:32:41.492Z,11.80
2022-09-17T18:35:08.749Z,11.80
2022-09-17T18:37:35.493Z,11.80
2022-09-17T18:40:02.732Z,11.80
2022-09-17T18:42:29.563Z,11.70
2022-09-17T18:44:56.478Z,11.70
2022-09-17T18:47:23.380Z,11.60
2022-09-17T18:49:50.231Z,11.60
2022-09-17T18:52:17.064Z,11.60
2022-09-17T18:54:46.389Z,11.60
2022-09-17T18:57:13.831Z,11.50
2022-09-17T18:59:40.659Z,11.50
2022-09-17T19:02:11.942Z,11.50
2022-09-17T19:04:39.234Z,11.50
2022-09-17T19:07:06.706Z,11.40
2022-09-17T19:09:33.456Z,11.40
2022-09-17T19:12:00.567Z,11.40
2022-09-17T19:14:27.359Z,11.40
2022-09-17T19:16:55.266Z,11.30
2022-09-17T19:19:22.080Z,11.40
2022-09-17T19:21:50.710Z,11.30
2022-09-17T19:24:18.259Z,11.30
2022-09-17T19:26:50.693Z,11.30
2022-09-17T19:29:17.926Z,11.20
2022-09-17T19:31:44.882Z,11.20
2022-09-17T19:34:11.989Z,11.20
2022-09-17T19:36:38.871Z,11.20
2022-09-17T19:39:06.335Z,11.20
2022-09-17T19:41:36.025Z,11.20
2022-09-17T19:44:03.637Z,11.20
2022-09-17T19:46:31.807Z,11.10
2022-09-17T19:48:58.907Z,11.10
2022-09-17T19:51:28.906Z,11.10
2022-09-17T19:53:58.455Z,11.10
2022-09-17T19:56:27.240Z,11.10
2022-09-17T19:58:54.181Z,11.10
2022-09-17T20:01:21.506Z,11.00
2022-09-17T20:03:48.967Z,10.90
2022-09-17T20:06:18.790Z,10.90
2022-09-17T20:08:50.446Z,10.90
2022-09-17T20:11:18.536Z,10.80
2022-09-17T20:13:45.678Z,10.90
2022-09-17T20:16:14.550Z,10.90
2022-09-17T20:18:41.787Z,10.90
2022-09-17T20:21:17.270Z,10.90
2022-09-17T20:23:47.250Z,10.90
2022-09-17T20:26:15.427Z,10.90
2022-09-17T20:28:42.610Z,10.90
2022-09-17T20:31:16.283Z,10.80
2022-09-17T20:33:44.157Z,10.90
2022-09-17T20:36:13.818Z,10.90
2022-09-17T20:41:28.443Z,10.80
2022-09-17T20:43:55.643Z,10.80
2022-09-17T20:46:29.358Z,11.00
2022-09-17T20:48:57.739Z,10.90
2022-09-17T20:51:27.265Z,10.90
2022-09-17T20:53:54.206Z,11.00
2022-09-17T20:56:23.938Z,11.00
2022-09-17T20:59:04.018Z,11.00
2022-09-17T21:01:34.504Z,11.00
2022-09-17T21:04:04.365Z,11.00
2022-09-17T21:06:34.170Z,10.90
2022-09-17T21:09:02.954Z,11.00
2022-09-17T21:11:33.528Z,10.90
2022-09-17T21:14:00.804Z,11.00
2022-09-17T21:16:28.610Z,11.00
2022-09-17T21:19:01.615Z,11.00
2022-09-17T21:21:29.003Z,10.90
2022-09-17T21:24:01.023Z,10.90
2022-09-17T21:26:28.516Z,10.90
2022-09-17T21:28:56.973Z,11.00
2022-09-17T21:31:32.117Z,10.90
2022-09-17T21:34:02.352Z,10.90
2022-09-17T21:36:32.694Z,10.90
2022-09-17T21:39:02.521Z,10.90
2022-09-17T21:41:29.768Z,10.90
2022-09-17T21:43:56.804Z,10.90
2022-09-17T21:46:25.956Z,10.90
2022-09-17T21:48:57.057Z,10.90
2022-09-17T21:51:30.210Z,10.90
2022-09-17T21:53:59.447Z,10.90
2022-09-17T21:56:26.462Z,10.90
2022-09-17T21:58:58.270Z,10.90
2022-09-17T22:01:40.560Z,10.80
2022-09-17T22:04:09.549Z,10.80
2022-09-17T22:06:38.034Z,10.80
2022-09-17T22:09:05.946Z,10.80
2022-09-17T22:11:35.677Z,10.70
2022-09-17T22:14:10.993Z,10.70
2022-09-17T22:16:43.425Z,10.60
2022-09-17T22:19:11.995Z,10.60
2022-09-17T22:21:46.123Z,10.50
2022-09-17T22:24:14.645Z,10.50
2022-09-17T22:26:44.036Z,10.60
2022-09-17T22:29:16.590Z,10.50
2022-09-17T22:31:44.383Z,10.40
2022-09-17T22:34:14.295Z,10.40
2022-09-17T22:36:42.061Z,10.40
2022-09-17T22:39:09.939Z,10.40
2022-09-17T22:41:42.932Z,10.40
2022-09-17T22:44:13.230Z,10.50
2022-09-17T22:46:41.362Z,10.40
2022-09-17T22:49:09.818Z,10.30
2022-09-17T22:51:37.464Z,10.30
2022-09-17T22:54:04.579Z,10.30
2022-09-17T22:56:31.604Z,10.20
2022-09-17T22:58:58.943Z,10.20
2022-09-17T23:01:29.277Z,10.20
2022-09-17T23:03:56.656Z,10.20
2022-09-17T23:06:29.204Z,10.20
2022-09-17T23:08:55.988Z,10.20
2022-09-17T23:11:37.144Z,10.10
2022-09-17T23:14:07.564Z,10.10
2022-09-17T23:16:38.579Z,10.10
2022-09-17T23:19:05.604Z,10.10
2022-09-17T23:21:32.410Z,10.10
2022-09-17T23:23:59.246Z,10.20
2022-09-17T23:26:27.354Z,10.00
2022-09-17T23:28:54.656Z,10.10
2022-09-17T23:31:24.238Z,10.00
2022-09-17T23:33:52.085Z,10.10
2022-09-17T23:36:31.359Z,10.10
2022-09-17T23:38:59.725Z,10.00
2022-09-17T23:41:35.612Z,10.00
2022-09-17T23:44:05.352Z,10.00
2022-09-17T23:46:35.242Z,10.00
2022-09-17T23:49:04.064Z,10.00
2022-09-17T23:51:34.135Z,9.90
2022-09-17T23:54:01.397Z,9.90
2022-09-17T23:56:28.758Z,9.90
2022-09-17T23:58:56.978Z,9.90
